createdAt,value
2023-02-05T00:04:46.799Z,14.85
2023-02-05T00:09:52.842Z,15.37
2023-02-05T00:14:57.273Z,14.73
2023-02-05T00:20:01.733Z,16.88
2023-02-05T00:25:08.210Z,14.88
2023-02-05T00:30:13.971Z,18.15
2023-02-05T00:35:18.442Z,14.05
2023-02-05T00:40:24.717Z,12.82
2023-02-05T00:45:35.281Z,12.45
2023-02-05T00:50:40.966Z,13.25
2023-02-05T00:55:47.291Z,16.13
2023-02-05T01:00:52.700Z,12.57
2023-02-05T01:11:03.365Z,14.32
2023-02-05T01:16:08.316Z,15.73
2023-02-05T01:21:13.049Z,12.48
2023-02-05T01:26:19.590Z,18.13
2023-02-05T01:31:25.304Z,16.98
2023-02-05T01:36:29.728Z,17.95
2023-02-05T01:41:36.448Z,20.27
2023-02-05T01:46:42.431Z,17.08
2023-02-05T01:51:48.848Z,14.55
2023-02-05T01:56:59.202Z,15.07
2023-02-05T02:02:07.350Z,18.63
2023-02-05T02:07:15.060Z,14.95
2023-02-05T02:12:25.380Z,14.27
2023-02-05T02:17:30.297Z,14.73
2023-02-05T02:22:57.917Z,17.33
2023-02-05T02:28:08.927Z,21.92
2023-02-05T02:33:26.958Z,15.50
2023-02-05T02:38:35.435Z,17.13
2023-02-05T02:43:49.660Z,15.60
2023-02-05T02:48:58.280Z,16.77
2023-02-05T02:54:07.678Z,17.17
2023-02-05T02:59:18.185Z,15.30
2023-02-05T03:04:27.140Z,16.60
2023-02-05T03:09:39.313Z,12.70
2023-02-05T03:14:45.766Z,12.95
2023-02-05T03:19:54.679Z,15.70
2023-02-05T03:24:59.476Z,14.85
2023-02-05T03:30:06.810Z,11.10
2023-02-05T03:35:24.029Z,13.23
2023-02-05T03:40:38.444Z,16.42
2023-02-05T03:45:51.461Z,15.82
2023-02-05T03:51:08.263Z,12.98
2023-02-05T03:56:22.229Z,11.25
2023-02-05T04:01:30.242Z,16.95
2023-02-05T04:06:35.007Z,9.30
2023-02-05T04:11:40.004Z,11.68
2023-02-05T04:16:46.121Z,15.67
2023-02-05T04:21:50.724Z,16.88
2023-02-05T04:26:57.004Z,19.50
2023-02-05T04:32:03.315Z,15.73
2023-02-05T04:37:08.130Z,18.92
2023-02-05T04:42:12.717Z,12.32
2023-02-05T04:47:18.923Z,17.45
2023-02-05T04:52:23.440Z,19.10
2023-02-05T04:57:27.968Z,21.13
2023-02-05T05:02:33.964Z,18.30
2023-02-05T05:07:38.456Z,16.13
2023-02-05T05:12:43.125Z,13.43
2023-02-05T05:17:48.992Z,15.67
2023-02-05T05:22:53.375Z,15.30
2023-02-05T05:27:57.807Z,15.07
2023-02-05T05:33:03.631Z,21.83
2023-02-05T05:38:08.283Z,19.90
2023-02-05T05:43:31.355Z,13.88
2023-02-05T05:48:37.315Z,8.68
2023-02-05T05:53:41.680Z,13.30
2023-02-05T05:58:46.633Z,9.63
2023-02-05T06:03:52.541Z,17.75
2023-02-05T06:08:56.900Z,19.33
2023-02-05T06:14:01.297Z,22.63
2023-02-05T06:19:07.536Z,12.17
2023-02-05T06:24:12.055Z,17.35
2023-02-05T06:29:16.592Z,22.80
2023-02-05T06:34:23.180Z,23.73
2023-02-05T06:39:27.923Z,16.00
2023-02-05T06:44:35.548Z,16.15
2023-02-05T06:49:41.427Z,20.20
2023-02-05T06:54:45.998Z,20.50
2023-02-05T06:59:50.400Z,17.80
2023-02-05T07:04:56.225Z,17.57
2023-02-05T07:10:00.699Z,21.60
2023-02-05T07:15:05.580Z,16.27
2023-02-05T07:20:12.657Z,15.98
2023-02-05T07:25:17.138Z,19.23
2023-02-05T07:30:21.765Z,16.97
2023-02-05T07:35:27.861Z,17.53
2023-02-05T07:40:32.281Z,10.48
2023-02-05T07:45:37.002Z,15.27
2023-02-05T07:50:46.324Z,19.70
2023-02-05T07:55:50.855Z,15.43
2023-02-05T08:00:55.377Z,20.70
2023-02-05T08:06:04.728Z,17.37
2023-02-05T08:11:09.753Z,22.25
2023-02-05T08:16:15.851Z,21.40
2023-02-05T08:21:22.675Z,17.38
2023-02-05T08:26:27.504Z,22.30
2023-02-05T08:31:32.080Z,17.60
2023-02-05T08:36:38.235Z,17.58
2023-02-05T08:41:43.128Z,19.52
2023-02-05T08:46:50.428Z,21.00
2023-02-05T08:51:56.609Z,28.27
2023-02-05T08:57:01.298Z,22.52
2023-02-05T09:02:05.823Z,15.17
2023-02-05T09:07:11.919Z,16.30
2023-02-05T09:12:16.466Z,16.33
2023-02-05T09:17:21.040Z,41.03
2023-02-05T09:22:26.894Z,17.15
2023-02-05T09:27:31.401Z,24.95
2023-02-05T09:32:35.907Z,21.08
2023-02-05T09:37:41.631Z,17.65
2023-02-05T09:42:55.377Z,24.13
2023-02-05T09:48:15.097Z,24.02
2023-02-05T09:53:23.084Z,17.83
2023-02-05T09:58:32.329Z,16.42
2023-02-05T10:03:44.896Z,16.52
2023-02-05T10:09:02.692Z,20.50
2023-02-05T10:14:17.536Z,21.92
2023-02-05T10:19:52.821Z,20.10
2023-02-05T10:25:31.554Z,18.47
2023-02-05T10:30:41.415Z,21.15
2023-02-05T10:35:52.715Z,19.27
2023-02-05T10:41:07.923Z,21.40
2023-02-05T10:46:15.290Z,19.13
2023-02-05T10:51:28.166Z,26.10
2023-02-05T10:56:34.182Z,25.45
2023-02-05T11:01:41.610Z,24.95
2023-02-05T11:06:48.784Z,21.13
2023-02-05T11:11:58.545Z,19.15
2023-02-05T11:17:10.165Z,21.35
2023-02-05T11:22:28.936Z,21.23
2023-02-05T11:27:36.376Z,18.55
2023-02-05T11:32:40.744Z,19.83
2023-02-05T11:37:45.538Z,14.93
2023-02-05T11:43:01.261Z,14.93
2023-02-05T11:48:08.109Z,24.63
2023-02-05T11:53:17.466Z,17.55
2023-02-05T11:58:36.258Z,16.23
2023-02-05T12:03:41.528Z,22.92
2023-02-05T12:08:49.574Z,18.17
2023-02-05T12:14:06.344Z,21.67
2023-02-05T12:19:19.789Z,15.23
2023-02-05T12:24:48.825Z,16.52
2023-02-05T12:30:17.973Z,25.27
2023-02-05T12:35:35.017Z,20.40
2023-02-05T12:40:49.816Z,24.35
2023-02-05T12:46:04.342Z,21.60
2023-02-05T12:51:24.644Z,16.65
2023-02-05T12:56:41.554Z,20.15
2023-02-05T13:01:52.695Z,18.40
2023-02-05T13:07:05.662Z,13.25
2023-02-05T13:12:15.238Z,18.05
2023-02-05T13:17:24.396Z,17.05
2023-02-05T13:22:50.320Z,16.55
2023-02-05T13:33:20.292Z,23.65
2023-02-05T13:38:43.021Z,17.63
2023-02-05T13:44:13.532Z,26.15
2023-02-05T13:49:48.092Z,23.77
2023-02-05T13:55:14.217Z,27.00
2023-02-05T14:00:19.443Z,22.55
2023-02-05T14:05:33.348Z,32.63
2023-02-05T14:10:42.190Z,31.90
2023-02-05T14:15:46.711Z,26.65
2023-02-05T14:20:52.585Z,30.50
2023-02-05T14:26:12.084Z,31.92
2023-02-05T14:31:58.833Z,25.83
2023-02-05T14:37:05.030Z,28.50
2023-02-05T14:42:20.555Z,36.85
2023-02-05T16:58:36.189Z,27.88
2023-02-05T17:03:42.725Z,31.77
2023-02-05T17:08:55.543Z,35.45
2023-02-05T17:14:23.188Z,34.15
2023-02-05T17:19:30.419Z,38.97
2023-02-05T17:24:34.981Z,38.58
2023-02-05T17:29:40.927Z,34.40
2023-02-05T17:34:46.333Z,38.72
2023-02-05T17:39:51.649Z,33.35
2023-02-05T17:44:58.093Z,34.58
2023-02-05T17:50:02.915Z,39.08
2023-02-05T17:55:09.777Z,41.03
2023-02-05T18:00:19.330Z,38.50
2023-02-05T18:05:24.372Z,47.47
2023-02-05T18:10:32.237Z,51.63
2023-02-05T18:15:38.681Z,49.88
2023-02-05T18:20:43.492Z,45.15
2023-02-05T18:25:49.238Z,51.33
2023-02-05T18:31:00.968Z,46.70
2023-02-05T18:36:08.336Z,51.88
2023-02-05T18:41:14.742Z,46.30
2023-02-05T18:46:21.302Z,45.50
2023-02-05T18:51:25.920Z,45.17
2023-02-05T18:56:30.356Z,55.17
2023-02-05T19:01:38.257Z,48.28
2023-02-05T19:06:43.029Z,44.20
2023-02-05T19:11:47.684Z,42.57
2023-02-05T19:16:54.388Z,46.57
2023-02-05T19:22:02.021Z,43.15
2023-02-05T19:27:06.513Z,49.33
2023-02-05T19:32:12.802Z,45.57
2023-02-05T19:37:17.887Z,48.70
2023-02-05T19:42:22.463Z,50.13
2023-02-05T19:47:29.405Z,55.23
2023-02-05T19:52:34.092Z,46.90
2023-02-05T19:57:38.654Z,51.10
2023-02-05T20:02:44.842Z,52.15
2023-02-05T20:07:50.553Z,48.97
2023-02-05T20:18:00.734Z,58.40
2023-02-05T20:23:05.313Z,55.80
2023-02-05T20:28:10.014Z,54.83
2023-02-05T20:33:16.183Z,53.23
2023-02-05T20:38:20.756Z,44.17
2023-02-05T20:43:25.577Z,51.75
2023-02-05T20:48:31.981Z,45.00
2023-02-05T20:53:36.903Z,50.05
2023-02-05T20:58:41.778Z,45.60
2023-02-05T21:03:50.899Z,44.00
2023-02-05T21:08:56.077Z,49.17
2023-02-05T21:14:00.592Z,51.53
2023-02-05T21:19:08.922Z,43.97
2023-02-05T21:24:16.205Z,40.00
2023-02-05T21:29:22.220Z,36.20
2023-02-05T21:34:29.711Z,42.30
2023-02-05T21:39:36.127Z,41.67
2023-02-05T21:44:40.720Z,41.63
2023-02-05T21:49:46.654Z,44.97
2023-02-05T21:54:51.721Z,40.90
2023-02-05T21:59:56.223Z,43.42
2023-02-05T22:05:02.025Z,42.63
2023-02-05T22:10:07.237Z,46.42
2023-02-05T22:15:14.030Z,40.72
2023-02-05T22:20:20.620Z,42.83
2023-02-05T22:25:25.079Z,41.10
2023-02-05T22:30:29.638Z,45.67
2023-02-05T22:35:36.393Z,37.67
2023-02-05T22:40:41.104Z,39.53
2023-02-05T22:45:45.802Z,37.22
2023-02-05T22:50:51.945Z,38.20
2023-02-05T22:55:56.547Z,40.63
2023-02-05T23:01:09.311Z,41.03
2023-02-05T23:06:17.144Z,47.40
2023-02-05T23:11:22.568Z,37.00
2023-02-05T23:16:29.332Z,40.78
2023-02-05T23:21:37.016Z,40.13
2023-02-05T23:26:44.562Z,58.47
2023-02-05T23:31:49.419Z,107.97
2023-02-05T23:36:55.321Z,43.10
2023-02-05T23:41:59.849Z,46.38
2023-02-05T23:47:04.644Z,45.88
2023-02-05T23:52:10.589Z,43.10
2023-02-05T23:57:15.121Z,39.10
